Time;durP1;ratioP1;P1;durP2;ratioP2;P2;SDS_P1;SDS_P2;PMS_P1;PMS_P2;Temp;Humidity;BMP_temperature;BMP_pressure;BME280_temperature;BME280_humidity;BME280_pressure;Samples;Min_cycle;Max_cycle;Signal;HPM_P1;HPM_P2
2022/09/13 00:00:43;;;;;;;4.50;4.10;;;17.20;99.90;;;;;;5023718;28;20034;-78
2022/09/13 00:03:10;;;;;;;5.43;4.93;;;17.10;99.90;;;;;;5055312;28;20400;-78
2022/09/13 00:05:37;;;;;;;6.85;4.78;;;17.10;99.90;;;;;;5024749;28;20520;-77
2022/09/13 00:08:04;;;;;;;5.53;4.50;;;17.10;99.90;;;;;;5023720;28;20470;-78
2022/09/13 00:10:33;;;;;;;5.40;4.82;;;17.00;99.90;;;;;;5016310;28;20092;-78
2022/09/13 00:12:59;;;;;;;5.13;4.63;;;17.00;99.90;;;;;;5017785;28;20788;-77
2022/09/13 00:15:25;;;;;;;5.05;4.53;;;17.00;99.90;;;;;;5022277;28;20021;-78
2022/09/13 00:17:50;;;;;;;5.88;4.25;;;17.00;99.90;;;;;;5041592;28;20060;-78
2022/09/13 00:20:16;;;;;;;5.72;5.20;;;17.00;99.90;;;;;;5024183;28;20079;-76
2022/09/13 00:22:42;;;;;;;6.53;5.63;;;17.10;99.90;;;;;;5022453;28;20501;-78
2022/09/13 00:25:08;;;;;;;5.30;4.70;;;17.00;99.90;;;;;;5024479;28;20030;-76
2022/09/13 00:27:35;;;;;;;7.13;4.90;;;17.10;99.90;;;;;;5024407;28;20033;-78
2022/09/13 00:30:05;;;;;;;6.43;5.80;;;17.10;99.90;;;;;;5024227;28;20026;-77
2022/09/13 00:32:32;;;;;;;;;;;17.10;99.90;;;;;;5021981;28;20029;-77
2022/09/13 00:34:57;;;;;;;5.35;4.40;;;17.10;99.90;;;;;;5026541;28;19909;-76
2022/09/13 00:37:23;;;;;;;5.97;5.38;;;17.10;99.90;;;;;;5023790;28;20017;-78
2022/09/13 00:39:48;;;;;;;6.70;5.22;;;17.10;99.90;;;;;;5024651;28;20026;-78
2022/09/13 00:42:14;;;;;;;6.82;6.13;;;17.10;99.90;;;;;;5053772;28;20049;-76
2022/09/13 00:44:54;;;;;;;6.78;6.18;;;17.10;99.90;;;;;;5038302;28;20112;-77
2022/09/13 00:47:35;;;;;;;7.15;6.45;;;17.10;99.90;;;;;;5020917;28;20029;-75
2022/09/13 00:50:19;;;;;;;6.72;5.82;;;17.10;99.90;;;;;;5039621;28;20030;-77
2022/09/13 00:52:54;;;;;;;7.43;6.13;;;17.00;99.90;;;;;;5037516;28;20029;-76
2022/09/13 00:55:36;;;;;;;5.97;5.38;;;17.10;99.90;;;;;;5024937;28;20120;-77
2022/09/13 00:58:08;;;;;;;6.93;5.22;;;17.10;99.90;;;;;;5025616;28;20528;-77
2022/09/13 01:00:35;;;;;;;6.00;5.38;;;17.20;99.90;;;;;;5026222;28;20045;-78
2022/09/13 01:03:05;;;;;;;5.45;4.95;;;17.10;99.90;;;;;;5020581;28;20382;-78
2022/09/13 01:05:38;;;;;;;6.63;5.78;;;17.20;99.90;;;;;;5044236;28;20250;-77
2022/09/13 01:08:11;;;;;;;6.22;5.63;;;17.20;99.90;;;;;;5027765;28;20053;-78
2022/09/13 01:10:39;;;;;;;7.63;5.80;;;17.20;99.90;;;;;;5036517;28;20050;-76
2022/09/13 01:13:32;;;;;;;6.22;5.63;;;17.10;99.90;;;;;;5027760;28;20086;-77
2022/09/13 01:15:59;;;;;;;6.00;5.40;;;17.10;99.90;;;;;;5023105;28;20091;-77
2022/09/13 01:18:24;;;;;;;6.25;5.65;;;17.20;99.90;;;;;;5042194;28;20412;-78
2022/09/13 01:21:18;;;;;;;7.70;6.15;;;17.20;99.90;;;;;;5040608;28;20048;-78
2022/09/13 01:24:14;;;;;;;5.97;5.00;;;17.20;99.90;;;;;;5026513;28;20083;-76
2022/09/13 01:27:08;;;;;;;6.00;4.97;;;17.20;99.90;;;;;;5025361;28;20049;-76
2022/09/13 01:29:36;;;;;;;5.88;5.05;;;17.20;99.90;;;;;;5025102;28;20389;-77
2022/09/13 01:32:24;;;;;;;7.90;5.70;;;17.30;99.90;;;;;;5039664;28;20033;-77
2022/09/13 01:35:08;;;;;;;5.60;4.97;;;17.20;99.90;;;;;;5040013;28;20092;-78
2022/09/13 01:38:23;;;;;;;5.10;4.60;;;17.20;99.90;;;;;;5040173;28;20432;-77
2022/09/13 01:41:21;;;;;;;6.47;5.57;;;17.20;99.90;;;;;;5026809;28;20037;-78
2022/09/13 01:44:03;;;;;;;8.13;5.88;;;17.20;99.90;;;;;;5057287;28;20025;-79
2022/09/13 01:46:35;;;;;;;6.75;5.15;;;17.10;99.90;;;;;;5024269;28;20030;-78
2022/09/13 01:49:24;;;;;;;6.18;5.60;;;17.20;99.90;;;;;;5024687;28;20122;-77
2022/09/13 01:52:02;;;;;;;5.20;4.63;;;17.20;99.90;;;;;;5040126;28;20033;-76
2022/09/13 01:54:31;;;;;;;5.93;4.93;;;17.20;99.90;;;;;;5025663;28;20437;-76
2022/09/13 01:57:13;;;;;;;5.78;5.05;;;17.10;99.90;;;;;;5025511;28;20029;-77
2022/09/13 01:59:52;;;;;;;6.43;5.30;;;17.10;99.90;;;;;;5025713;28;20030;-78
2022/09/13 02:02:24;;;;;;;5.90;5.30;;;17.20;99.90;;;;;;5024895;28;20476;-76
2022/09/13 02:04:54;;;;;;;7.05;5.10;;;17.20;99.90;;;;;;5030368;28;20029;-76
2022/09/13 02:07:39;;;;;;;7.13;6.13;;;17.30;99.90;;;;;;5043441;28;20038;-76
2022/09/13 02:10:37;;;;;;;5.38;4.72;;;17.20;99.90;;;;;;5041189;28;20133;-77
2022/09/13 02:13:06;;;;;;;5.53;4.50;;;17.10;99.90;;;;;;5022402;28;20068;-77
2022/09/13 02:15:45;;;;;;;5.15;4.65;;;17.30;99.90;;;;;;5020726;28;20079;-77
2022/09/13 02:18:36;;;;;;;6.03;5.35;;;17.30;99.90;;;;;;5055761;28;20481;-76
2022/09/13 02:21:09;;;;;;;5.85;5.20;;;17.30;99.90;;;;;;5023754;28;20029;-77
2022/09/13 02:24:00;;;;;;;5.95;5.00;;;17.20;99.90;;;;;;5024632;28;20463;-77
2022/09/13 02:26:28;;;;;;;6.38;4.65;;;17.20;99.90;;;;;;5025890;28;20041;-76
2022/09/13 02:28:57;;;;;;;5.45;4.82;;;17.10;99.90;;;;;;5020145;28;20030;-77
2022/09/13 02:31:29;;;;;;;5.77;5.07;;;17.10;99.90;;;;;;5023857;28;20029;-77
2022/09/13 02:34:02;;;;;;;6.45;5.13;;;17.20;99.90;;;;;;5039081;28;20429;-77
2022/09/13 02:36:35;;;;;;;7.18;5.68;;;17.20;99.90;;;;;;5036797;28;20025;-77
2022/09/13 02:39:11;;;;;;;5.93;5.03;;;17.20;99.90;;;;;;5044364;28;20042;-76
2022/09/13 02:41:51;;;;;;;5.63;4.93;;;17.10;99.90;;;;;;5023263;28;20139;-78
2022/09/13 02:44:32;;;;;;;5.50;4.43;;;17.20;99.90;;;;;;5026192;28;20444;-77
2022/09/13 02:47:37;;;;;;;8.05;4.95;;;17.10;99.90;;;;;;5025119;28;20033;-78
2022/09/13 02:50:31;;;;;;;5.75;5.22;;;17.20;99.90;;;;;;5026971;28;20028;-78
2022/09/13 02:53:11;;;;;;;4.85;4.40;;;17.20;99.90;;;;;;5040204;28;20043;-77
2022/09/13 02:55:52;;;;;;;5.82;5.22;;;17.20;99.90;;;;;;5023096;28;20125;-78
2022/09/13 02:58:42;;;;;;;7.05;5.22;;;17.20;99.90;;;;;;5025388;28;20021;-76
2022/09/13 03:01:08;;;;;;;4.72;4.22;;;17.10;99.90;;;;;;5037635;28;20046;-76
2022/09/13 03:03:33;;;;;;;6.55;4.45;;;17.10;99.90;;;;;;5025868;28;20026;-78
2022/09/13 03:05:59;;;;;;;6.72;4.80;;;17.20;99.90;;;;;;5041343;28;20500;-77
2022/09/13 03:08:26;;;;;;;6.03;5.43;;;17.20;99.90;;;;;;5058639;28;20022;-77
2022/09/13 03:11:04;;;;;;;4.47;4.07;;;17.20;99.90;;;;;;5037931;28;20099;-76
2022/09/13 03:14:03;;;;;;;6.82;5.53;;;17.10;99.90;;;;;;5040304;28;20030;-77
2022/09/13 03:16:50;;;;;;;6.75;6.05;;;17.20;99.90;;;;;;5022326;28;20022;-79
2022/09/13 03:19:39;;;;;;;5.70;5.13;;;17.10;99.90;;;;;;5022967;28;20029;-77
2022/09/13 03:22:24;;;;;;;6.32;5.22;;;17.10;99.90;;;;;;5021923;28;20076;-76
2022/09/13 03:25:11;;;;;;;5.53;3.75;;;17.20;99.90;;;;;;5038672;28;20231;-77
2022/09/13 03:27:39;;;;;;;5.53;4.38;;;17.20;99.90;;;;;;5055598;28;20596;-77
2022/09/13 03:30:08;;;;;;;5.38;4.82;;;17.20;99.90;;;;;;5024840;28;20160;-78
2022/09/13 03:32:44;;;;;;;4.65;4.25;;;17.10;99.90;;;;;;5022104;28;20072;-79
2022/09/13 03:35:28;;;;;;;6.03;4.85;;;17.10;99.90;;;;;;5024398;28;20434;-76
2022/09/13 03:38:03;;;;;;;5.32;4.35;;;17.10;99.90;;;;;;5021928;28;20032;-78
2022/09/13 03:40:49;;;;;;;5.45;4.95;;;17.00;99.90;;;;;;5023360;28;20041;-78
2022/09/13 03:43:34;;;;;;;4.88;4.38;;;17.10;99.90;;;;;;5021743;28;20057;-77
2022/09/13 03:46:25;;;;;;;3.95;3.47;;;17.00;99.90;;;;;;5022548;28;20083;-76
2022/09/13 03:48:52;;;;;;;5.70;4.55;;;17.10;99.90;;;;;;5025786;28;20026;-77
2022/09/13 03:51:18;;;;;;;6.03;4.93;;;17.10;99.90;;;;;;5039554;28;20382;-77
2022/09/13 03:53:52;;;;;;;4.90;4.40;;;17.10;99.90;;;;;;5022941;28;20030;-78
2022/09/13 03:56:19;;;;;;;5.60;4.50;;;17.00;99.90;;;;;;5052918;28;20034;-77
2022/09/13 03:58:46;;;;;;;6.28;5.15;;;17.10;99.90;;;;;;5023876;28;20033;-77
2022/09/13 04:01:12;;;;;;;4.95;4.53;;;17.10;99.90;;;;;;5031719;28;20125;-76
2022/09/13 04:03:38;;;;;;;6.50;4.80;;;17.00;99.90;;;;;;5022181;28;20030;-78
2022/09/13 04:06:05;;;;;;;4.82;4.20;;;17.00;99.90;;;;;;5021982;28;20022;-77
2022/09/13 04:08:33;;;;;;;6.50;5.30;;;17.10;99.90;;;;;;5023487;28;20032;-78
2022/09/13 04:11:00;;;;;;;5.37;4.43;;;17.00;99.90;;;;;;4984509;28;1114576;-76
2022/09/13 04:13:25;;;;;;;5.07;4.53;;;17.00;99.90;;;;;;5038345;28;20033;-77
2022/09/13 04:15:51;;;;;;;6.05;5.18;;;17.10;99.90;;;;;;5023034;28;20079;-77
2022/09/13 04:18:17;;;;;;;6.00;4.70;;;17.00;99.90;;;;;;5056598;28;20048;-77
2022/09/13 04:20:43;;;;;;;5.05;4.55;;;17.00;99.90;;;;;;5023603;28;20093;-76
2022/09/13 04:23:09;;;;;;;5.32;4.63;;;17.00;99.90;;;;;;5040393;28;20040;-77
2022/09/13 04:25:39;;;;;;;5.75;5.15;;;17.00;99.90;;;;;;5036559;28;20029;-76
2022/09/13 04:28:05;;;;;;;5.20;4.57;;;17.00;99.90;;;;;;5023793;28;20033;-76
2022/09/13 04:30:31;;;;;;;5.97;5.25;;;17.00;99.90;;;;;;5021115;28;20026;-77
2022/09/13 04:32:58;;;;;;;4.95;4.28;;;17.00;99.90;;;;;;5023384;28;20063;-77
2022/09/13 04:35:24;;;;;;;5.82;4.32;;;17.00;99.90;;;;;;5053458;28;20053;-77
2022/09/13 04:37:50;;;;;;;5.32;4.68;;;17.00;99.90;;;;;;5024310;28;20029;-78
2022/09/13 04:40:15;;;;;;;5.72;4.75;;;17.00;99.90;;;;;;5041309;28;20041;-76
2022/09/13 04:42:43;;;;;;;5.57;4.68;;;17.10;99.90;;;;;;5023231;28;20034;-77
2022/09/13 04:45:09;;;;;;;6.05;4.78;;;17.00;99.90;;;;;;5038745;28;20041;-78
2022/09/13 04:47:35;;;;;;;5.68;4.38;;;17.00;99.90;;;;;;5022946;28;20030;-77
2022/09/13 04:50:00;;;;;;;5.43;4.90;;;17.00;99.90;;;;;;5023284;28;20075;-77
2022/09/13 04:52:26;;;;;;;5.78;4.55;;;17.10;99.90;;;;;;5032815;28;20078;-77
2022/09/13 04:54:52;;;;;;;4.68;4.18;;;17.10;99.90;;;;;;5024402;28;20026;-77
2022/09/13 04:57:18;;;;;;;6.90;5.63;;;17.00;99.90;;;;;;5023264;28;20389;-77
2022/09/13 04:59:43;;;;;;;5.95;4.88;;;17.10;99.90;;;;;;5023470;28;20036;-76
2022/09/13 05:02:09;;;;;;;5.35;4.85;;;17.10;99.90;;;;;;5038309;28;20033;-79
2022/09/13 05:04:35;;;;;;;5.88;4.70;;;17.10;99.90;;;;;;5023845;28;20038;-78
2022/09/13 05:07:00;;;;;;;5.88;5.05;;;17.10;99.90;;;;;;5050529;28;20038;-77
2022/09/13 05:09:26;;;;;;;6.32;4.78;;;17.10;99.90;;;;;;5023641;28;20022;-77
2022/09/13 05:11:52;;;;;;;5.95;4.93;;;17.10;99.90;;;;;;5024072;28;20045;-78
2022/09/13 05:14:18;;;;;;;7.50;4.90;;;17.10;99.90;;;;;;5054965;28;20026;-77
2022/09/13 05:16:43;;;;;;;6.03;4.95;;;17.10;99.90;;;;;;5022428;28;20033;-78
2022/09/13 05:19:10;;;;;;;6.05;4.85;;;17.10;99.90;;;;;;5033834;28;20474;-79
2022/09/13 05:21:36;;;;;;;6.15;4.45;;;17.10;99.90;;;;;;5018972;28;20049;-77
2022/09/13 05:24:02;;;;;;;4.85;4.38;;;17.20;99.90;;;;;;5025050;28;20034;-77
2022/09/13 05:26:32;;;;;;;5.25;4.40;;;17.20;99.90;;;;;;5021331;28;20069;-78
2022/09/13 05:29:00;;;;;;;4.72;4.20;;;17.20;99.90;;;;;;5019766;28;20064;-78
2022/09/13 05:31:29;;;;;;;6.28;4.43;;;17.20;99.90;;;;;;5022063;28;20022;-77
2022/09/13 05:34:07;;;;;;;4.82;4.38;;;17.20;99.90;;;;;;5034033;28;20065;-77
2022/09/13 05:36:33;;;;;;;3.95;3.15;;;17.20;99.90;;;;;;5018924;28;20025;-78
2022/09/13 05:38:59;;;;;;;5.30;4.00;;;17.30;99.90;;;;;;5040858;28;20411;-77
2022/09/13 05:41:25;;;;;;;5.43;3.65;;;17.20;99.90;;;;;;5023629;28;20034;-77
2022/09/13 05:43:50;;;;;;;7.32;4.60;;;17.30;99.90;;;;;;5024399;28;20029;-78
2022/09/13 05:46:18;;;;;;;5.82;3.95;;;17.30;99.90;;;;;;5025536;28;20068;-77
2022/09/13 05:48:44;;;;;;;7.25;4.07;;;17.40;99.90;;;;;;5024799;28;20026;-78
2022/09/13 05:51:18;;;;;;;5.05;4.28;;;17.40;99.90;;;;;;5039811;28;20025;-78
2022/09/13 05:53:46;;;;;;;5.15;4.32;;;17.40;99.90;;;;;;5009766;28;20022;-78
2022/09/13 05:56:18;;;;;;;4.63;3.90;;;17.40;99.90;;;;;;5030554;28;20100;-77
2022/09/13 05:58:49;;;;;;;5.35;4.38;;;17.40;99.90;;;;;;5007230;28;20021;-79
2022/09/13 06:01:18;;;;;;;4.60;3.95;;;17.50;99.90;;;;;;5053571;28;20037;-78
2022/09/13 06:03:48;;;;;;;5.07;3.43;;;17.50;99.90;;;;;;5038785;28;20065;-75
2022/09/13 06:06:14;;;;;;;6.63;3.88;;;17.60;99.90;;;;;;5034404;28;20372;-79
2022/09/13 06:08:40;;;;;;;7.07;5.70;;;17.50;99.90;;;;;;5017043;28;20025;-78
2022/09/13 06:11:11;;;;;;;9.07;7.75;;;17.60;99.90;;;;;;5025151;28;20478;-77
2022/09/13 06:13:37;;;;;;;9.02;7.85;;;17.70;99.90;;;;;;5026437;28;20174;-78
2022/09/13 06:16:06;;;;;;;10.27;6.95;;;17.80;99.90;;;;;;5023120;28;20029;-77
2022/09/13 06:18:33;;;;;;;8.23;7.25;;;17.80;99.90;;;;;;5040793;28;20394;-78
2022/09/13 06:21:05;;;;;;;7.47;6.57;;;17.90;99.90;;;;;;5040344;28;20056;-77
2022/09/13 06:23:31;;;;;;;10.45;8.55;;;17.90;99.90;;;;;;5025759;28;20120;-78
2022/09/13 06:26:04;;;;;;;8.35;7.28;;;17.90;99.90;;;;;;5039424;28;20112;-78
2022/09/13 06:28:31;;;;;;;10.00;7.97;;;17.90;99.90;;;;;;5023120;28;20473;-78
2022/09/13 06:31:05;;;;;;;8.90;7.88;;;18.00;99.90;;;;;;5033712;28;20030;-78
2022/09/13 06:37:40;;;;;;;9.68;6.85;;;18.10;99.90;;;;;;4893518;29;20474;-78
2022/09/13 06:40:06;;;;;;;7.53;6.70;;;18.10;99.90;;;;;;4733964;30;20040;-78
2022/09/13 06:42:35;;;;;;;10.60;9.32;;;18.10;99.90;;;;;;4737864;30;20600;-77
2022/09/13 06:45:02;;;;;;;14.90;11.67;;;18.20;99.90;;;;;;4736872;30;20044;-76
2022/09/13 06:47:28;;;;;;;12.02;9.60;;;18.20;99.90;;;;;;4738544;30;20062;-78
2022/09/13 06:49:53;;;;;;;9.75;8.73;;;18.30;99.90;;;;;;4717205;30;20041;-77
2022/09/13 06:52:19;;;;;;;11.85;7.47;;;18.40;99.90;;;;;;4754298;30;20578;-79
2022/09/13 06:54:44;;;;;;;10.65;9.15;;;18.40;99.90;;;;;;4759420;30;20065;-79
2022/09/13 06:57:10;;;;;;;12.50;9.82;;;18.50;99.90;;;;;;4748134;30;20082;-77
2022/09/13 06:59:36;;;;;;;14.93;11.45;;;18.60;99.90;;;;;;4756993;30;20035;-76
2022/09/13 07:02:01;;;;;;;11.00;8.63;;;18.60;99.90;;;;;;4752642;30;20067;-77
2022/09/13 07:04:30;;;;;;;11.25;9.75;;;18.60;99.90;;;;;;4737092;30;20047;-78
2022/09/13 07:06:57;;;;;;;10.48;8.98;;;18.70;99.90;;;;;;4754941;30;20062;-76
2022/09/13 07:09:23;;;;;;;10.60;9.02;;;18.70;99.90;;;;;;4757830;30;20577;-77
2022/09/13 07:11:52;;;;;;;11.50;10.20;;;18.70;99.90;;;;;;4758374;30;20509;-76
2022/09/13 07:14:23;;;;;;;13.50;11.82;;;18.70;99.90;;;;;;4827869;29;20127;-77
2022/09/13 07:16:50;;;;;;;12.57;10.85;;;18.70;99.90;;;;;;4930812;28;20049;-77
2022/09/13 07:19:19;;;;;;;10.65;8.68;;;18.80;99.90;;;;;;5015096;28;20062;-77
2022/09/13 07:21:45;;;;;;;15.27;12.05;;;18.90;99.90;;;;;;5004972;28;20052;-78
2022/09/13 07:24:11;;;;;;;20.50;13.60;;;18.90;99.90;;;;;;5014127;28;20036;-78
2022/09/13 07:26:37;;;;;;;14.02;10.73;;;18.90;99.90;;;;;;5001623;28;20041;-77
2022/09/13 07:29:06;;;;;;;10.32;9.32;;;19.10;99.90;;;;;;5047376;28;20351;-78
2022/09/13 07:31:37;;;;;;;12.90;10.30;;;19.20;99.90;;;;;;5003896;28;20037;-77
2022/09/13 07:34:05;;;;;;;13.43;10.48;;;19.30;99.90;;;;;;5017918;28;20029;-78
2022/09/13 07:36:33;;;;;;;14.32;12.43;;;19.30;99.90;;;;;;5018056;28;20624;-77
2022/09/13 07:39:00;;;;;;;17.50;14.55;;;19.30;99.90;;;;;;5017653;28;20056;-80
2022/09/13 07:41:28;;;;;;;18.27;13.68;;;19.30;99.90;;;;;;5018299;28;20041;-77
2022/09/13 07:43:54;;;;;;;14.55;12.80;;;19.30;99.90;;;;;;5016206;28;20052;-77
2022/09/13 07:46:25;;;;;;;16.33;12.85;;;19.40;99.90;;;;;;5030811;28;20033;-78
2022/09/13 07:48:58;;;;;;;16.00;14.13;;;19.40;99.90;;;;;;5013189;28;20486;-75
2022/09/13 07:51:26;;;;;;;20.65;14.02;;;19.70;99.90;;;;;;4981838;28;20053;-79
2022/09/13 07:53:55;;;;;;;18.02;13.32;;;19.80;99.90;;;;;;5012980;28;20445;-76
2022/09/13 07:56:23;;;;;;;18.92;14.63;;;19.80;99.90;;;;;;5014435;28;20261;-78
2022/09/13 07:58:50;;;;;;;14.63;12.50;;;19.80;99.90;;;;;;5019801;28;20029;-79
2022/09/13 08:01:33;;;;;;;20.52;16.52;;;20.00;99.90;;;;;;5021729;28;20045;-78
2022/09/13 08:04:07;;;;;;;21.85;15.55;;;20.10;99.90;;;;;;5035737;28;20032;-78
2022/09/13 08:06:35;;;;;;;23.90;18.63;;;20.20;99.90;;;;;;5020494;28;20045;-75
2022/09/13 08:09:01;;;;;;;21.08;17.42;;;20.30;99.90;;;;;;5014750;28;20157;-78
2022/09/13 08:11:30;;;;;;;19.70;17.08;;;20.40;99.90;;;;;;5009814;28;20041;-79
2022/09/13 08:13:56;;;;;;;20.57;16.57;;;20.50;99.90;;;;;;5037819;28;20036;-78
2022/09/13 08:16:24;;;;;;;19.00;15.27;;;20.50;99.90;;;;;;5019916;28;20116;-76
2022/09/13 08:18:52;;;;;;;20.42;14.63;;;20.70;99.90;;;;;;5036675;28;20076;-77
2022/09/13 08:21:18;;;;;;;16.42;12.93;;;21.10;99.90;;;;;;5013928;28;20041;-78
2022/09/13 08:23:44;;;;;;;12.13;9.82;;;21.20;99.90;;;;;;5019541;28;20540;-77
2022/09/13 08:26:10;;;;;;;14.20;11.10;;;21.30;99.90;;;;;;5019557;28;20037;-80
2022/09/13 08:28:39;;;;;;;11.75;8.43;;;21.20;99.90;;;;;;5022029;28;20197;-79
2022/09/13 08:31:07;;;;;;;7.78;6.18;;;21.40;99.90;;;;;;5022645;28;20065;-77
2022/09/13 08:33:34;;;;;;;8.18;4.60;;;21.40;99.90;;;;;;5037803;28;20187;-78
2022/09/13 08:36:00;;;;;;;9.50;7.47;;;21.40;99.90;;;;;;5025239;28;20371;-77
2022/09/13 08:38:27;;;;;;;10.32;5.72;;;21.40;99.90;;;;;;5034415;28;20040;-77
2022/09/13 08:41:04;;;;;;;8.43;6.13;;;21.50;99.90;;;;;;5020493;28;20505;-77
2022/09/13 08:43:53;;;;;;;10.07;5.20;;;21.40;99.90;;;;;;5017850;28;20030;-78
2022/09/13 08:46:34;;;;;;;7.27;4.70;;;21.40;99.90;;;;;;5020326;28;20032;-78
2022/09/13 08:49:22;;;;;;;7.18;5.53;;;21.30;99.90;;;;;;5019700;28;20033;-78
2022/09/13 08:52:11;;;;;;;5.97;4.00;;;21.20;99.90;;;;;;5006761;28;20063;-79
2022/09/13 08:54:36;;;;;;;6.38;4.38;;;21.50;99.90;;;;;;5022374;28;20429;-80
2022/09/13 08:57:07;;;;;;;5.78;3.80;;;21.30;99.90;;;;;;5037339;28;20079;-79
2022/09/13 08:59:58;;;;;;;9.50;5.68;;;21.40;99.90;;;;;;5020462;28;20065;-80
2022/09/13 09:02:31;;;;;;;5.57;4.03;;;21.30;99.90;;;;;;5021555;28;20037;-78
2022/09/13 09:05:10;;;;;;;6.32;3.30;;;21.50;99.90;;;;;;5020943;28;20018;-78
2022/09/13 09:07:44;;;;;;;6.60;4.20;;;21.70;99.90;;;;;;5051518;28;20469;-79
2022/09/13 09:10:23;;;;;;;6.90;3.92;;;21.70;99.90;;;;;;5020738;28;20562;-77
2022/09/13 09:12:53;;;;;;;5.82;4.38;;;21.70;99.90;;;;;;5053651;28;20029;-79
2022/09/13 09:15:21;;;;;;;4.65;3.55;;;21.70;99.90;;;;;;5020260;28;20100;-78
2022/09/13 09:18:02;;;;;;;7.40;5.97;;;22.00;99.90;;;;;;5022636;28;20047;-79
2022/09/13 09:20:35;;;;;;;6.05;5.15;;;21.60;99.90;;;;;;5025692;28;20033;-77
2022/09/13 09:23:17;;;;;;;7.18;4.60;;;21.70;99.90;;;;;;5054759;28;20048;-80
2022/09/13 09:25:43;;;;;;;5.47;4.22;;;22.00;99.90;;;;;;5021376;28;20029;-78
2022/09/13 09:28:13;;;;;;;7.70;6.82;;;21.90;99.90;;;;;;5042142;28;20037;-79
2022/09/13 09:31:03;;;;;;;7.95;7.15;;;21.60;99.90;;;;;;5017387;28;20161;-80
2022/09/13 09:33:59;;;;;;;7.15;5.20;;;21.50;99.90;;;;;;5021065;28;20112;-81
2022/09/13 09:36:39;;;;;;;8.57;6.22;;;21.60;99.90;;;;;;5023033;28;20029;-79
2022/09/13 09:39:06;;;;;;;9.25;5.65;;;21.70;99.90;;;;;;5020084;28;20056;-81
2022/09/13 09:41:34;;;;;;;8.95;6.63;;;21.70;99.90;;;;;;4996622;28;20064;-82
2022/09/13 09:44:22;;;;;;;8.15;5.47;;;21.50;99.90;;;;;;4988647;28;20068;-78
2022/09/13 09:46:58;;;;;;;10.27;8.05;;;21.50;99.90;;;;;;5057098;28;20033;-79
2022/09/13 09:52:31;;;;;;;8.48;7.30;;;21.50;99.90;;;;;;5024920;28;20386;-80
2022/09/13 09:55:23;;;;;;;8.23;6.75;;;21.50;99.90;;;;;;5022737;28;20112;-78
2022/09/13 09:57:51;;;;;;;5.90;5.13;;;21.40;99.90;;;;;;5019258;28;20091;-81
2022/09/13 10:00:17;;;;;;;9.25;6.40;;;21.40;99.90;;;;;;5055046;28;20068;-80
2022/09/13 10:02:44;;;;;;;8.32;5.50;;;21.30;99.90;;;;;;5027765;28;20048;-79
2022/09/13 10:05:13;;;;;;;8.98;6.68;;;21.20;99.90;;;;;;5020140;28;21162;-79
2022/09/13 10:07:40;;;;;;;5.00;3.88;;;21.20;99.90;;;;;;5018253;28;20402;-77
2022/09/13 10:10:19;;;;;;;3.50;2.85;;;21.30;99.90;;;;;;5054706;28;20132;-81
2022/09/13 10:12:50;;;;;;;4.80;3.00;;;21.40;99.90;;;;;;5022982;28;20030;-80
2022/09/13 10:15:19;;;;;;;5.13;2.28;;;21.40;99.90;;;;;;5053443;28;20076;-79
2022/09/13 10:18:02;;;;;;;4.60;2.38;;;21.30;99.90;;;;;;5027322;28;20449;-79
2022/09/13 10:20:30;;;;;;;3.45;2.15;;;21.10;99.90;;;;;;5024165;28;20038;-78
2022/09/13 10:23:18;;;;;;;3.33;1.80;;;21.20;99.90;;;;;;5036623;28;20095;-79
2022/09/13 10:25:56;;;;;;;3.65;1.70;;;21.20;99.90;;;;;;5019320;28;20037;-79
2022/09/13 10:28:23;;;;;;;2.72;1.55;;;21.20;99.90;;;;;;5019617;28;20030;-78
2022/09/13 10:30:56;;;;;;;3.08;1.30;;;21.40;99.90;;;;;;5002330;28;20378;-79
2022/09/13 10:33:34;;;;;;;4.22;2.60;;;21.50;99.90;;;;;;5017742;28;20075;-78
2022/09/13 10:36:04;;;;;;;3.97;2.42;;;21.50;99.90;;;;;;5020767;28;20076;-79
2022/09/13 10:38:39;;;;;;;3.88;1.63;;;21.70;99.90;;;;;;5054001;28;20046;-79
2022/09/13 10:41:18;;;;;;;4.10;1.75;;;21.70;99.90;;;;;;5017289;28;20053;-78
2022/09/13 10:43:44;;;;;;;2.63;1.00;;;21.60;99.90;;;;;;5041991;28;20067;-80
2022/09/13 10:46:14;;;;;;;2.67;1.38;;;21.70;99.90;;;;;;5022581;28;20526;-78
2022/09/13 10:48:54;;;;;;;3.08;2.00;;;21.60;99.90;;;;;;5045113;28;20034;-79
2022/09/13 10:51:26;;;;;;;4.90;1.98;;;21.70;99.90;;;;;;5024596;28;20038;-80
2022/09/13 10:54:21;;;;;;;4.90;2.33;;;22.00;99.90;;;;;;5020892;28;20087;-78
2022/09/13 10:56:48;;;;;;;2.47;1.00;;;22.40;99.90;;;;;;5037124;28;20032;-84
2022/09/13 10:59:21;;;;;;;5.53;1.90;;;22.80;99.90;;;;;;5042540;28;20130;-80
2022/09/13 11:02:02;;;;;;;3.05;2.15;;;22.50;99.90;;;;;;5050745;28;20026;-81
2022/09/13 11:04:54;;;;;;;2.15;1.17;;;22.30;99.90;;;;;;5019996;28;20045;-78
2022/09/13 11:07:53;;;;;;;2.53;0.85;;;22.20;99.90;;;;;;5024073;28;20025;-80
2022/09/13 11:10:58;;;;;;;2.13;1.17;;;22.30;99.90;;;;;;5032712;28;20106;-78
2022/09/13 11:13:43;;;;;;;1.98;0.82;;;22.10;99.90;;;;;;5013698;28;20072;-79
2022/09/13 11:16:27;;;;;;;1.75;0.73;;;22.10;99.90;;;;;;5052267;28;20653;-79
2022/09/13 11:19:31;;;;;;;2.08;0.75;;;22.10;99.90;;;;;;5020340;28;20087;-80
2022/09/13 11:22:24;;;;;;;1.00;0.50;;;22.70;99.90;;;;;;5052942;28;20478;-79
2022/09/13 11:25:16;;;;;;;2.08;0.60;;;23.20;99.90;;;;;;5018697;28;20564;-79
2022/09/13 11:27:47;;;;;;;2.85;0.80;;;23.50;99.90;;;;;;5002296;28;20040;-80
2022/09/13 11:30:18;;;;;;;1.90;0.57;;;23.40;99.90;;;;;;5007319;28;20087;-80
2022/09/13 11:32:59;;;;;;;0.85;0.40;;;23.20;99.90;;;;;;5015705;28;20033;-78
2022/09/13 11:35:35;;;;;;;2.25;0.60;;;23.10;99.90;;;;;;5017969;28;20477;-80
2022/09/13 11:38:22;;;;;;;3.33;0.50;;;23.30;99.90;;;;;;5016442;28;20418;-78
2022/09/13 11:40:59;;;;;;;1.48;0.35;;;23.10;99.90;;;;;;5010311;28;20506;-80
2022/09/13 11:43:35;;;;;;;2.35;0.50;;;23.00;99.90;;;;;;5010586;28;20039;-77
2022/09/13 11:46:06;;;;;;;2.15;0.30;;;22.90;99.90;;;;;;5015692;28;20029;-80
2022/09/13 11:49:13;;;;;;;2.25;0.40;;;23.00;99.90;;;;;;5016241;28;20021;-78
2022/09/13 11:51:57;;;;;;;1.10;0.40;;;23.10;99.90;;;;;;4969002;28;20042;-79
2022/09/13 11:55:01;;;;;;;1.50;0.40;;;23.30;99.90;;;;;;5019909;28;20037;-80
2022/09/13 11:57:41;;;;;;;1.45;0.40;;;23.40;99.90;;;;;;4968444;28;20026;-81
2022/09/13 12:00:13;;;;;;;2.58;0.40;;;23.40;99.90;;;;;;4945681;28;20530;-80
2022/09/13 12:03:01;;;;;;;1.67;0.40;;;23.10;99.90;;;;;;4967864;28;20069;-80
2022/09/13 12:05:35;;;;;;;2.30;0.40;;;22.80;99.90;;;;;;4963964;28;20129;-80
2022/09/13 12:08:19;;;;;;;0.82;0.32;;;22.90;99.90;;;;;;4968960;28;20650;-80
2022/09/13 12:10:53;;;;;;;0.75;0.30;;;22.90;99.90;;;;;;4966827;28;20112;-80
2022/09/13 12:13:36;;;;;;;0.75;0.30;;;23.10;99.90;;;;;;4966145;28;20041;-81
2022/09/13 12:16:07;;;;;;;0.50;0.20;;;23.60;99.90;;;;;;4935525;28;20497;-82
2022/09/13 12:18:49;;;;;;;1.30;0.20;;;23.80;99.90;;;;;;4966298;28;20537;-81
2022/09/13 12:21:22;;;;;;;1.35;0.40;;;23.50;99.90;;;;;;4964664;28;20266;-82
2022/09/13 12:24:05;;;;;;;1.33;0.30;;;22.90;99.90;;;;;;4967002;28;20031;-81
2022/09/13 12:26:39;;;;;;;1.85;0.30;;;22.80;99.90;;;;;;4967246;28;20134;-80
2022/09/13 12:29:31;;;;;;;1.45;0.20;;;22.70;99.90;;;;;;4929221;28;20050;-78
2022/09/13 12:32:03;;;;;;;0.68;0.20;;;22.90;99.90;;;;;;5007692;28;20505;-79
2022/09/13 12:34:41;;;;;;;0.98;0.28;;;23.00;99.90;;;;;;5015718;28;20068;-80
2022/09/13 12:37:28;;;;;;;0.70;0.20;;;23.40;99.90;;;;;;5019341;28;20053;-82
2022/09/13 12:40:36;;;;;;;1.15;0.20;;;23.70;99.90;;;;;;5022316;28;20037;-80
2022/09/13 12:43:12;;;;;;;1.13;0.20;;;24.00;99.90;;;;;;5011593;28;20053;-81
2022/09/13 12:45:38;;;;;;;0.55;0.20;;;23.70;99.90;;;;;;5036574;28;20036;-79
2022/09/13 12:48:26;;;;;;;1.52;0.20;;;23.30;99.90;;;;;;5023077;28;20490;-79
2022/09/13 12:51:09;;;;;;;0.40;0.10;;;23.30;99.90;;;;;;5037943;28;20544;-80
2022/09/13 12:54:13;;;;;;;1.48;0.20;;;23.40;99.90;;;;;;5024809;28;20029;-79
2022/09/13 12:56:43;;;;;;;0.63;0.20;;;23.80;99.90;;;;;;5023755;28;20026;-80
2022/09/13 12:59:27;;;;;;;0.80;0.20;;;24.10;99.90;;;;;;5025953;28;20177;-79
2022/09/13 13:01:53;;;;;;;1.13;0.20;;;24.10;99.90;;;;;;5019438;28;20038;-80
2022/09/13 13:04:31;;;;;;;0.50;0.20;;;23.90;99.90;;;;;;5055279;28;20025;-79
2022/09/13 13:07:01;;;;;;;0.47;0.10;;;24.00;99.90;;;;;;5025864;28;20080;-82
2022/09/13 13:09:42;;;;;;;2.30;0.17;;;23.80;99.90;;;;;;5025371;28;20482;-79
2022/09/13 13:12:25;;;;;;;0.80;0.17;;;23.80;99.90;;;;;;5056741;28;20038;-78
2022/09/13 13:14:52;;;;;;;0.68;0.20;;;23.90;99.90;;;;;;5025734;28;20036;-80
2022/09/13 13:17:42;;;;;;;0.80;0.13;;;24.00;99.90;;;;;;5018474;28;21930;-82
2022/09/13 13:20:45;;;;;;;1.85;0.10;;;23.80;99.90;;;;;;5025270;28;20052;-80
2022/09/13 13:23:26;;;;;;;0.73;0.20;;;23.80;99.90;;;;;;5027039;28;20625;-80
2022/09/13 13:26:34;;;;;;;1.30;0.20;;;23.40;99.90;;;;;;5024155;28;20429;-81
2022/09/13 13:29:02;;;;;;;1.20;0.10;;;23.20;99.90;;;;;;4942047;28;20065;-78